createdAt,value
2018-11-05T00:00:52.185Z,92.90
2018-11-05T00:03:19.571Z,94.57
2018-11-05T00:05:46.982Z,86.10
2018-11-05T00:08:14.364Z,88.53
2018-11-05T00:10:41.736Z,86.13
2018-11-05T00:13:09.173Z,87.13
2018-11-05T00:15:36.577Z,77.70
2018-11-05T00:18:04.315Z,85.37
2018-11-05T00:20:31.734Z,105.67
2018-11-05T00:22:59.130Z,113.97
2018-11-05T00:25:26.505Z,88.33
2018-11-05T00:27:53.905Z,99.07
2018-11-05T00:30:21.282Z,87.90
2018-11-05T00:32:48.840Z,83.47
2018-11-05T00:35:16.243Z,91.17
2018-11-05T00:37:44.258Z,85.47
2018-11-05T00:40:14.645Z,84.97
2018-11-05T00:42:42.578Z,88.07
2018-11-05T00:45:10.879Z,94.03
2018-11-05T00:47:38.365Z,81.03
2018-11-05T00:50:07.646Z,91.07
2018-11-05T00:52:35.198Z,95.43
2018-11-05T00:55:02.617Z,88.33
2018-11-05T00:57:30.032Z,94.90
2018-11-05T00:59:57.541Z,78.33
2018-11-05T01:02:24.986Z,86.40
2018-11-05T01:04:52.417Z,77.00
2018-11-05T01:07:19.793Z,78.50
2018-11-05T01:09:47.193Z,82.80
2018-11-05T01:12:14.661Z,89.27
2018-11-05T01:14:42.039Z,82.60
2018-11-05T01:17:09.415Z,83.80
2018-11-05T01:19:36.815Z,91.80
2018-11-05T01:22:04.235Z,90.80
2018-11-05T01:24:31.672Z,93.23
2018-11-05T01:26:59.072Z,102.53
2018-11-05T01:29:26.477Z,94.23
2018-11-05T01:31:53.840Z,90.07
2018-11-05T01:34:21.266Z,89.23
2018-11-05T01:36:48.868Z,93.67
2018-11-05T01:39:16.266Z,93.10
2018-11-05T01:41:43.666Z,85.37
2018-11-05T01:44:11.053Z,81.93
2018-11-05T01:46:38.466Z,89.07
2018-11-05T01:49:05.875Z,88.77
2018-11-05T01:51:33.246Z,99.70
2018-11-05T01:54:00.668Z,104.27
2018-11-05T01:56:28.076Z,85.67
2018-11-05T01:58:55.460Z,88.00
2018-11-05T02:01:22.851Z,88.20
2018-11-05T02:03:50.231Z,83.60
2018-11-05T02:06:17.923Z,92.80
2018-11-05T02:08:45.312Z,102.20
2018-11-05T02:11:12.710Z,85.43
2018-11-05T02:13:40.143Z,90.10
2018-11-05T02:16:07.615Z,99.53
2018-11-05T02:18:35.806Z,91.73
2018-11-05T02:21:03.195Z,110.27
2018-11-05T02:23:30.625Z,104.23
2018-11-05T02:25:58.011Z,94.70
2018-11-05T02:28:25.415Z,91.40
2018-11-05T02:30:52.839Z,80.57
2018-11-05T02:33:20.253Z,86.87
2018-11-05T02:35:47.655Z,87.43
2018-11-05T02:38:15.112Z,88.03
2018-11-05T02:40:42.516Z,75.80
2018-11-05T02:43:09.906Z,78.07
2018-11-05T02:45:37.565Z,80.00
2018-11-05T02:48:04.975Z,76.73
2018-11-05T02:50:32.379Z,75.30
2018-11-05T02:52:59.772Z,82.87
2018-11-05T02:55:27.153Z,94.87
2018-11-05T02:57:54.557Z,111.67
2018-11-05T03:00:21.945Z,122.07
2018-11-05T03:02:49.473Z,97.97
2018-11-05T03:05:17.990Z,118.00
2018-11-05T03:07:46.095Z,96.10
2018-11-05T03:10:13.656Z,106.67
2018-11-05T03:12:41.725Z,99.87
2018-11-05T03:15:10.269Z,82.63
2018-11-05T03:17:37.931Z,145.47
2018-11-05T03:20:05.854Z,86.10
2018-11-05T03:22:33.266Z,90.67
2018-11-05T03:25:00.657Z,112.47
2018-11-05T03:27:28.064Z,149.03
2018-11-05T03:29:55.449Z,113.80
2018-11-05T03:32:22.859Z,158.30
2018-11-05T03:34:50.302Z,107.80
2018-11-05T03:37:17.703Z,125.37
2018-11-05T03:39:45.099Z,83.77
2018-11-05T03:42:12.571Z,83.00
2018-11-05T03:44:39.967Z,103.00
2018-11-05T03:47:07.418Z,119.23
2018-11-05T03:49:34.859Z,93.00
2018-11-05T03:52:02.252Z,77.17
2018-11-05T03:54:29.687Z,87.40
2018-11-05T03:56:57.285Z,93.33
2018-11-05T03:59:24.673Z,102.13
2018-11-05T04:01:52.055Z,108.37
2018-11-05T04:04:19.455Z,96.40
2018-11-05T04:06:46.828Z,102.83
2018-11-05T04:09:14.217Z,112.50
2018-11-05T04:11:41.645Z,111.47
2018-11-05T04:14:09.055Z,111.63
2018-11-05T04:16:37.036Z,111.63
2018-11-05T04:19:05.078Z,95.60
2018-11-05T04:21:41.394Z,109.07
2018-11-05T04:24:09.528Z,97.30
2018-11-05T04:26:36.937Z,84.20
2018-11-05T04:29:04.348Z,88.17
2018-11-05T04:31:31.734Z,94.63
2018-11-05T04:33:59.300Z,97.17
2018-11-05T04:36:26.713Z,98.97
2018-11-05T04:38:54.541Z,95.20
2018-11-05T04:41:22.077Z,107.63
2018-11-05T04:43:49.662Z,99.47
2018-11-05T04:46:17.059Z,99.37
2018-11-05T04:48:44.701Z,92.10
2018-11-05T04:51:12.095Z,99.60
2018-11-05T04:53:39.472Z,85.33
2018-11-05T04:56:07.057Z,85.70
2018-11-05T04:58:34.998Z,97.03
2018-11-05T05:01:02.399Z,88.47
2018-11-05T05:03:29.945Z,102.37
2018-11-05T05:05:57.208Z,94.30
2018-11-05T05:08:24.579Z,97.57
2018-11-05T05:10:52.239Z,88.63
2018-11-05T05:13:19.628Z,82.20
2018-11-05T05:15:47.013Z,80.07
2018-11-05T05:18:14.432Z,90.63
2018-11-05T05:20:41.835Z,93.53
2018-11-05T05:23:09.291Z,96.33
2018-11-05T05:25:36.656Z,89.03
2018-11-05T05:28:04.053Z,96.47
2018-11-05T05:30:31.450Z,95.73
2018-11-05T05:32:58.914Z,97.43
2018-11-05T05:35:26.248Z,117.87
2018-11-05T05:37:53.643Z,109.37
2018-11-05T05:40:21.053Z,99.80
2018-11-05T05:42:48.806Z,104.30
2018-11-05T05:45:16.199Z,86.40
2018-11-05T05:47:43.600Z,106.27
2018-11-05T05:50:12.416Z,99.63
2018-11-05T05:52:40.370Z,101.87
2018-11-05T05:55:08.003Z,92.63
2018-11-05T05:57:35.577Z,90.47
2018-11-05T06:00:03.138Z,88.50
2018-11-05T06:02:30.486Z,99.17
2018-11-05T06:04:57.895Z,95.80
2018-11-05T06:07:25.314Z,92.70
2018-11-05T06:09:52.728Z,93.03
2018-11-05T06:12:20.135Z,95.80
2018-11-05T06:14:48.247Z,87.67
2018-11-05T06:17:15.626Z,89.10
2018-11-05T06:19:43.024Z,98.83
2018-11-05T06:22:10.412Z,98.37
2018-11-05T06:24:37.795Z,94.90
2018-11-05T06:27:05.253Z,87.77
2018-11-05T06:29:32.664Z,88.70
2018-11-05T06:32:00.206Z,88.57
2018-11-05T06:34:27.601Z,91.83
2018-11-05T06:36:54.997Z,82.37
2018-11-05T06:39:22.633Z,91.40
2018-11-05T06:41:50.277Z,82.97
2018-11-05T06:44:17.494Z,90.43
2018-11-05T06:46:44.920Z,92.83
2018-11-05T06:49:12.459Z,90.77
2018-11-05T06:51:40.028Z,101.30
2018-11-05T06:54:07.462Z,104.03
2018-11-05T06:56:35.617Z,95.17
2018-11-05T06:59:03.025Z,94.20
2018-11-05T07:01:31.154Z,89.50
2018-11-05T07:03:58.570Z,104.33
2018-11-05T07:06:26.074Z,89.43
2018-11-05T07:08:53.516Z,93.77
2018-11-05T07:11:21.031Z,90.80
2018-11-05T07:13:48.606Z,85.67
2018-11-05T07:16:16.172Z,86.47
2018-11-05T07:18:43.840Z,80.43
2018-11-05T07:21:11.060Z,87.90
2018-11-05T07:23:38.550Z,72.60
2018-11-05T07:26:06.097Z,84.97
2018-11-05T07:28:33.504Z,73.63
2018-11-05T07:31:00.902Z,77.27
2018-11-05T07:33:28.494Z,75.00
2018-11-05T07:35:55.765Z,70.53
2018-11-05T07:38:23.230Z,72.00
2018-11-05T07:40:50.603Z,73.33
2018-11-05T07:43:18.358Z,69.03
2018-11-05T07:45:45.793Z,73.83
2018-11-05T07:48:13.194Z,80.70
2018-11-05T07:50:40.625Z,78.20
2018-11-05T07:53:08.020Z,81.13
2018-11-05T07:55:35.432Z,70.80
2018-11-05T07:58:02.836Z,90.70
2018-11-05T08:00:35.886Z,77.53
2018-11-05T08:03:03.544Z,75.07
2018-11-05T08:05:30.806Z,71.73
2018-11-05T08:07:58.199Z,66.50
2018-11-05T08:10:25.594Z,64.97
2018-11-05T08:12:53.004Z,69.53
2018-11-05T08:15:21.845Z,70.70
2018-11-05T08:17:50.351Z,56.23
2018-11-05T08:20:17.765Z,59.43
2018-11-05T08:22:45.241Z,58.97
2018-11-05T08:25:13.347Z,54.23
2018-11-05T08:27:40.776Z,51.77
2018-11-05T08:30:11.663Z,52.23
2018-11-05T08:32:39.068Z,56.90
2018-11-05T08:35:06.835Z,51.10
2018-11-05T08:37:34.207Z,57.07
2018-11-05T08:40:01.619Z,61.13
2018-11-05T08:42:29.028Z,58.53
2018-11-05T08:44:56.388Z,62.43
2018-11-05T08:47:23.845Z,55.13
2018-11-05T08:49:51.291Z,60.03
2018-11-05T08:52:18.684Z,56.73
2018-11-05T08:54:46.083Z,58.80
2018-11-05T08:57:13.484Z,53.27
2018-11-05T08:59:40.869Z,55.07
2018-11-05T09:02:08.279Z,51.83
2018-11-05T09:04:35.715Z,56.70
2018-11-05T09:07:03.119Z,48.13
2018-11-05T09:09:30.521Z,44.23
2018-11-05T09:11:57.995Z,49.30
2018-11-05T09:14:25.358Z,47.43
2018-11-05T09:16:52.737Z,45.73
2018-11-05T09:19:20.964Z,47.10
2018-11-05T09:21:48.876Z,56.43
2018-11-05T09:24:16.359Z,40.40
2018-11-05T09:26:43.994Z,35.77
2018-11-05T09:29:11.368Z,39.57
2018-11-05T09:31:38.772Z,31.97
2018-11-05T09:34:06.180Z,35.20
2018-11-05T09:36:33.610Z,35.40
2018-11-05T09:39:01.007Z,32.37
2018-11-05T09:41:28.395Z,33.83
2018-11-05T09:43:55.842Z,40.17
2018-11-05T09:46:23.266Z,38.93
2018-11-05T09:48:50.682Z,32.13
2018-11-05T09:51:18.092Z,35.67
2018-11-05T09:53:45.493Z,35.77
2018-11-05T09:56:13.690Z,36.33
2018-11-05T09:58:41.114Z,29.93
2018-11-05T10:01:08.612Z,30.53
2018-11-05T10:03:41.730Z,28.03
2018-11-05T10:06:09.040Z,31.33
2018-11-05T10:08:36.482Z,31.23
2018-11-05T10:11:04.171Z,32.67
2018-11-05T10:13:31.579Z,29.33
2018-11-05T10:15:58.999Z,32.03
2018-11-05T10:18:26.394Z,39.87
2018-11-05T10:20:53.789Z,32.93
2018-11-05T10:23:21.192Z,33.97
2018-11-05T10:25:49.332Z,34.27
2018-11-05T10:28:16.735Z,32.13
2018-11-05T10:30:44.144Z,31.33
2018-11-05T10:33:11.643Z,31.17
2018-11-05T10:35:44.554Z,35.17
2018-11-05T10:38:11.940Z,31.60
2018-11-05T10:40:39.356Z,27.47
2018-11-05T10:43:06.779Z,28.73
2018-11-05T10:45:34.195Z,28.77
2018-11-05T10:48:01.660Z,28.97
2018-11-05T10:50:29.191Z,26.77
2018-11-05T10:52:56.483Z,27.83
2018-11-05T10:55:23.926Z,29.77
2018-11-05T10:57:51.391Z,29.77
2018-11-05T11:00:24.931Z,27.27
2018-11-05T11:02:57.980Z,30.97
2018-11-05T11:05:26.200Z,32.60
2018-11-05T11:07:54.824Z,31.27
2018-11-05T11:10:22.583Z,29.87
2018-11-05T11:12:50.241Z,35.43
2018-11-05T11:15:17.741Z,35.53
2018-11-05T11:17:45.110Z,38.07
2018-11-05T11:20:13.350Z,37.17
2018-11-05T11:22:40.792Z,36.37
2018-11-05T11:25:08.801Z,35.50
2018-11-05T11:27:36.441Z,31.50
2018-11-05T11:30:03.791Z,34.47
2018-11-05T11:32:31.396Z,28.87
2018-11-05T11:34:59.700Z,36.43
2018-11-05T11:37:27.109Z,32.57
2018-11-05T11:39:54.502Z,28.50
2018-11-05T11:42:21.923Z,26.03
2018-11-05T11:44:50.045Z,28.27
2018-11-05T11:47:17.393Z,23.67
2018-11-05T11:49:44.882Z,24.52
2018-11-05T11:52:12.302Z,30.37
2018-11-05T11:54:40.700Z,28.05
2018-11-05T11:57:08.396Z,30.48
2018-11-05T11:59:35.833Z,28.90
2018-11-05T12:02:09.189Z,26.70
2018-11-05T12:04:36.603Z,31.73
2018-11-05T12:07:04.445Z,29.07
2018-11-05T12:09:31.877Z,32.27
2018-11-05T12:11:59.375Z,39.90
2018-11-05T12:14:26.845Z,31.13
2018-11-05T12:16:54.236Z,27.87
2018-11-05T12:19:21.632Z,31.73
2018-11-05T12:21:49.279Z,34.57
2018-11-05T12:24:16.863Z,34.47
2018-11-05T12:26:44.338Z,36.80
2018-11-05T12:29:11.715Z,33.60
2018-11-05T12:31:39.257Z,40.83
2018-11-05T12:34:06.783Z,34.03
2018-11-05T12:36:34.458Z,34.20
2018-11-05T12:39:01.980Z,29.70
2018-11-05T12:41:29.362Z,35.30
2018-11-05T12:43:56.768Z,31.00
2018-11-05T12:46:24.165Z,28.63
2018-11-05T12:48:51.554Z,27.90
2018-11-05T12:51:18.972Z,26.53
2018-11-05T12:53:46.550Z,31.37
2018-11-05T12:56:13.931Z,33.07
2018-11-05T12:58:41.341Z,30.30
2018-11-05T13:01:08.879Z,68.13
2018-11-05T13:03:36.273Z,33.13
2018-11-05T13:06:03.709Z,37.73
2018-11-05T13:08:31.118Z,32.47
2018-11-05T13:10:58.522Z,31.43
2018-11-05T13:13:25.922Z,29.47
2018-11-05T13:15:53.320Z,29.80
2018-11-05T13:18:20.683Z,31.03
2018-11-05T13:20:48.128Z,32.97
2018-11-05T13:23:20.128Z,35.90
2018-11-05T13:25:47.541Z,40.27
2018-11-05T13:28:15.056Z,87.77
2018-11-05T13:30:42.452Z,55.57
2018-11-05T13:33:09.865Z,37.60
2018-11-05T13:35:37.289Z,63.50
2018-11-05T13:38:05.070Z,36.93
2018-11-05T13:40:32.144Z,38.70
2018-11-05T13:42:59.540Z,48.63
2018-11-05T13:45:27.250Z,35.10
2018-11-05T13:47:54.955Z,32.57
2018-11-05T13:50:22.168Z,30.47
2018-11-05T13:52:49.501Z,31.40
2018-11-05T13:55:17.226Z,32.83
2018-11-05T13:57:45.675Z,35.27
2018-11-05T14:00:14.343Z,33.00
2018-11-05T14:02:41.752Z,33.30
2018-11-05T14:05:09.845Z,33.47
2018-11-05T14:07:37.377Z,49.43
2018-11-05T14:10:06.017Z,34.10
2018-11-05T14:12:33.428Z,31.67
2018-11-05T14:15:00.836Z,33.00
2018-11-05T14:17:28.232Z,34.13
2018-11-05T14:19:55.660Z,33.30
2018-11-05T14:22:23.080Z,33.47
2018-11-05T14:24:50.465Z,30.97
2018-11-05T14:27:17.945Z,28.57
2018-11-05T14:29:45.902Z,32.10
2018-11-05T14:32:13.017Z,34.00
2018-11-05T14:34:40.395Z,36.10
2018-11-05T14:37:07.859Z,39.83
2018-11-05T14:39:35.215Z,30.93
2018-11-05T14:42:02.606Z,34.07
2018-11-05T14:44:30.050Z,34.60
2018-11-05T14:46:57.458Z,33.63
2018-11-05T14:49:24.852Z,32.93
2018-11-05T14:51:52.258Z,34.03
2018-11-05T14:54:19.661Z,39.93
2018-11-05T14:56:47.077Z,35.43
2018-11-05T14:59:14.492Z,36.77
2018-11-05T15:01:44.057Z,33.10
2018-11-05T15:04:11.557Z,39.73
2018-11-05T15:06:38.976Z,37.13
2018-11-05T15:09:07.254Z,34.87
2018-11-05T15:11:34.721Z,34.37
2018-11-05T15:14:02.130Z,31.87
2018-11-05T15:16:29.567Z,36.83
2018-11-05T15:18:57.291Z,35.97
2018-11-05T15:21:25.218Z,31.03
2018-11-05T15:23:52.579Z,40.27
2018-11-05T15:26:19.990Z,36.80
2018-11-05T15:28:47.368Z,44.77
2018-11-05T15:31:14.789Z,45.47
2018-11-05T15:33:42.164Z,64.80
2018-11-05T15:36:09.579Z,45.57
2018-11-05T15:38:37.012Z,38.27
2018-11-05T15:41:04.448Z,41.20
2018-11-05T15:43:31.921Z,39.93
2018-11-05T15:45:59.376Z,67.40
2018-11-05T15:48:26.876Z,64.90
2018-11-05T15:50:54.385Z,47.33
2018-11-05T15:53:22.535Z,49.30
2018-11-05T15:55:49.491Z,48.30
2018-11-05T15:58:16.925Z,40.93
2018-11-05T16:00:44.348Z,59.70
2018-11-05T16:03:11.824Z,43.33
2018-11-05T16:05:39.269Z,38.90
2018-11-05T16:08:06.730Z,42.00
2018-11-05T16:10:34.135Z,48.07
2018-11-05T16:13:01.625Z,51.87
2018-11-05T16:15:29.051Z,39.47
2018-11-05T16:17:56.432Z,38.73
2018-11-05T16:20:23.888Z,45.30
2018-11-05T16:22:51.791Z,44.00
2018-11-05T16:25:19.208Z,38.77
2018-11-05T16:27:46.637Z,41.37
2018-11-05T16:30:15.321Z,38.90
2018-11-05T16:32:43.259Z,45.33
2018-11-05T16:35:10.722Z,47.53
2018-11-05T16:37:38.148Z,45.93
2018-11-05T16:40:06.617Z,37.90
2018-11-05T16:42:34.033Z,41.57
2018-11-05T16:45:01.448Z,45.53
2018-11-05T16:47:28.853Z,43.17
2018-11-05T16:49:56.303Z,40.40
2018-11-05T16:52:23.713Z,38.57
2018-11-05T16:54:51.122Z,40.17
2018-11-05T16:57:18.551Z,41.37
2018-11-05T16:59:45.960Z,39.97
2018-11-05T17:02:14.824Z,35.57
2018-11-05T17:04:43.279Z,43.47
2018-11-05T17:07:10.702Z,42.13
2018-11-05T17:09:38.253Z,54.40
2018-11-05T17:12:05.682Z,52.73
2018-11-05T17:14:33.086Z,48.33
2018-11-05T17:17:00.540Z,47.97
2018-11-05T17:19:29.107Z,46.20
2018-11-05T17:21:56.506Z,44.43
2018-11-05T17:24:23.967Z,53.13
2018-11-05T17:26:51.388Z,54.27
2018-11-05T17:29:18.798Z,44.87
2018-11-05T17:31:46.199Z,50.87
2018-11-05T17:34:13.800Z,41.70
2018-11-05T17:36:41.202Z,52.90
2018-11-05T17:39:09.109Z,53.67
2018-11-05T17:41:36.835Z,49.93
2018-11-05T17:44:04.824Z,46.57
2018-11-05T17:46:32.249Z,46.80
2018-11-05T17:48:59.661Z,48.17
2018-11-05T17:51:27.066Z,49.07
2018-11-05T17:53:54.485Z,47.27
2018-11-05T17:56:21.870Z,48.83
2018-11-05T17:58:49.396Z,48.33
2018-11-05T18:01:17.026Z,51.27
2018-11-05T18:03:44.493Z,49.00
2018-11-05T18:06:11.915Z,54.67
2018-11-05T18:08:39.383Z,46.63
2018-11-05T18:11:06.814Z,57.53
2018-11-05T18:13:34.256Z,54.90
2018-11-05T18:16:01.655Z,48.17
2018-11-05T18:18:29.062Z,48.27
2018-11-05T18:20:56.487Z,49.90
2018-11-05T18:23:23.897Z,56.17
2018-11-05T18:25:51.328Z,48.90
2018-11-05T18:28:18.763Z,43.83
2018-11-05T18:30:46.211Z,51.63
2018-11-05T18:33:13.593Z,47.30
2018-11-05T18:35:41.069Z,54.47
2018-11-05T18:38:08.525Z,53.30
2018-11-05T18:40:35.969Z,46.23
2018-11-05T18:43:03.514Z,43.60
2018-11-05T18:45:30.978Z,46.17
2018-11-05T18:47:58.370Z,47.47
2018-11-05T18:50:25.867Z,50.87
2018-11-05T18:52:53.425Z,47.57
2018-11-05T18:55:21.021Z,46.47
2018-11-05T18:57:57.593Z,54.20
2018-11-05T19:00:26.704Z,45.70
2018-11-05T19:02:55.202Z,49.20
2018-11-05T19:05:23.697Z,48.17
2018-11-05T19:07:51.133Z,51.17
2018-11-05T19:10:18.619Z,46.23
2018-11-05T19:12:46.449Z,49.30
2018-11-05T19:15:14.994Z,43.80
2018-11-05T19:17:43.139Z,46.73
2018-11-05T19:20:10.636Z,44.97
2018-11-05T19:22:38.736Z,51.77
2018-11-05T19:25:06.609Z,45.13
2018-11-05T19:27:33.992Z,41.67
2018-11-05T19:30:01.403Z,47.83
2018-11-05T19:32:28.827Z,54.13
2018-11-05T19:34:56.286Z,46.90
2018-11-05T19:37:23.700Z,44.60
2018-11-05T19:39:51.147Z,41.60
2018-11-05T19:42:18.709Z,39.20
2018-11-05T19:44:46.087Z,44.13
2018-11-05T19:47:14.175Z,58.27
2018-11-05T19:49:41.846Z,48.40
2018-11-05T19:52:09.464Z,46.10
2018-11-05T19:54:36.925Z,50.17
2018-11-05T19:57:04.456Z,58.43
2018-11-05T19:59:32.199Z,46.03
2018-11-05T20:25:08.128Z,12.43
2018-11-05T20:30:03.207Z,11.03
2018-11-05T20:34:31.095Z,31.53
2018-11-05T20:36:58.431Z,36.93
2018-11-05T20:39:25.863Z,37.80
2018-11-05T20:46:46.282Z,43.53
2018-11-05T20:49:13.667Z,38.30
2018-11-05T20:51:41.110Z,46.30
2018-11-05T20:54:08.729Z,47.87
2018-11-05T20:56:36.553Z,51.00
2018-11-05T20:59:03.989Z,52.23
2018-11-05T21:01:31.468Z,55.17
2018-11-05T21:03:58.873Z,83.87
2018-11-05T21:06:26.304Z,80.63
2018-11-05T21:08:53.734Z,63.03
2018-11-05T21:11:21.161Z,65.97
2018-11-05T21:13:48.654Z,64.33
2018-11-05T21:16:17.045Z,72.63
2018-11-05T21:18:44.481Z,64.30
2018-11-05T21:21:11.947Z,79.10
2018-11-05T21:23:39.353Z,57.13
2018-11-05T21:26:06.946Z,63.73
2018-11-05T21:28:34.370Z,62.40
2018-11-05T21:31:01.815Z,58.63
2018-11-05T21:33:29.287Z,60.83
2018-11-05T21:35:56.752Z,64.07
2018-11-05T21:38:24.180Z,60.20
2018-11-05T21:40:51.699Z,62.30
2018-11-05T21:43:19.113Z,72.40
2018-11-05T21:45:46.574Z,64.63
2018-11-05T21:48:13.965Z,66.53
2018-11-05T21:50:41.456Z,54.80
2018-11-05T21:53:08.904Z,56.93
2018-11-05T21:55:36.395Z,53.20
2018-11-05T21:58:03.844Z,70.27
2018-11-05T22:00:31.283Z,53.47
2018-11-05T22:03:00.087Z,56.43
2018-11-05T22:05:27.512Z,55.07
2018-11-05T22:07:54.936Z,66.03
2018-11-05T22:10:22.351Z,59.33
2018-11-05T22:12:50.015Z,64.03
2018-11-05T22:15:18.011Z,71.03
2018-11-05T22:17:45.483Z,50.40
2018-11-05T22:20:13.008Z,65.13
2018-11-05T22:22:40.787Z,52.60
2018-11-05T22:25:08.570Z,56.70
2018-11-05T22:27:36.099Z,59.63
2018-11-05T22:30:03.840Z,53.23
2018-11-05T22:32:31.257Z,62.77
2018-11-05T22:34:59.588Z,63.03
2018-11-05T22:37:27.120Z,78.80
2018-11-05T22:39:54.482Z,54.03
2018-11-05T22:42:21.909Z,64.93
2018-11-05T22:44:49.548Z,58.90
2018-11-05T22:47:16.970Z,56.60
2018-11-05T22:49:44.364Z,69.00
2018-11-05T22:52:11.804Z,55.60
2018-11-05T22:54:39.260Z,65.97
2018-11-05T22:57:06.813Z,68.57
2018-11-05T22:59:34.249Z,66.67
2018-11-05T23:02:01.689Z,66.30
2018-11-05T23:04:29.101Z,67.50
2018-11-05T23:06:56.507Z,63.50
2018-11-05T23:09:24.009Z,63.80
2018-11-05T23:11:51.439Z,60.60
2018-11-05T23:14:18.849Z,53.90
2018-11-05T23:16:46.252Z,55.33
2018-11-05T23:19:13.751Z,59.03
2018-11-05T23:21:41.356Z,55.77
2018-11-05T23:24:09.031Z,52.83
2018-11-05T23:26:36.452Z,54.33
2018-11-05T23:29:04.108Z,56.47
2018-11-05T23:31:31.766Z,55.07
2018-11-05T23:33:59.166Z,58.57
2018-11-05T23:36:26.645Z,51.13
2018-11-05T23:38:54.249Z,47.73
2018-11-05T23:41:21.657Z,48.50
2018-11-05T23:43:49.069Z,56.47
2018-11-05T23:46:16.523Z,56.90
2018-11-05T23:48:43.948Z,57.50
2018-11-05T23:51:11.333Z,62.07
2018-11-05T23:53:38.722Z,48.43
2018-11-05T23:56:06.144Z,49.77
2018-11-05T23:58:33.583Z,54.93
